createdAt,value
2023-07-07T00:00:59.189Z,100.00
2023-07-07T00:03:27.440Z,100.00
2023-07-07T00:05:55.677Z,100.00
2023-07-07T00:08:23.726Z,100.00
2023-07-07T00:10:51.860Z,100.00
2023-07-07T00:13:20.104Z,100.00
2023-07-07T00:15:49.621Z,100.00
2023-07-07T00:18:27.497Z,100.00
2023-07-07T00:20:56.752Z,100.00
2023-07-07T00:23:25.533Z,100.00
2023-07-07T00:26:01.467Z,100.00
2023-07-07T00:28:29.523Z,100.00
2023-07-07T00:30:59.119Z,100.00
2023-07-07T00:33:27.987Z,100.00
2023-07-07T00:35:56.328Z,100.00
2023-07-07T00:38:25.258Z,100.00
2023-07-07T00:40:54.264Z,100.00
2023-07-07T00:43:23.279Z,100.00
2023-07-07T00:45:51.268Z,100.00
2023-07-07T00:48:23.598Z,100.00
2023-07-07T00:50:56.226Z,100.00
2023-07-07T00:53:25.466Z,100.00
2023-07-07T00:55:58.583Z,100.00
2023-07-07T00:58:28.558Z,100.00
2023-07-07T01:01:01.166Z,100.00
2023-07-07T01:03:35.350Z,100.00
2023-07-07T01:06:07.656Z,100.00
2023-07-07T01:08:36.836Z,100.00
2023-07-07T01:11:05.034Z,100.00
2023-07-07T01:13:33.920Z,100.00
2023-07-07T01:16:11.795Z,100.00
2023-07-07T01:18:47.947Z,100.00
2023-07-07T01:21:30.690Z,100.00
2023-07-07T01:24:20.129Z,100.00
2023-07-07T01:27:00.008Z,100.00
2023-07-07T01:29:58.576Z,100.00
2023-07-07T01:32:31.545Z,100.00
2023-07-07T01:35:06.120Z,100.00
2023-07-07T01:37:34.165Z,100.00
2023-07-07T01:40:04.806Z,100.00
2023-07-07T01:42:38.515Z,100.00
2023-07-07T01:45:15.058Z,100.00
2023-07-07T01:47:53.269Z,100.00
2023-07-07T01:50:26.623Z,100.00
2023-07-07T01:52:58.107Z,100.00
2023-07-07T01:55:33.042Z,100.00
2023-07-07T01:58:03.434Z,100.00
2023-07-07T02:00:32.697Z,100.00
2023-07-07T02:03:03.303Z,100.00
2023-07-07T02:05:32.348Z,100.00
2023-07-07T02:08:00.813Z,100.00
2023-07-07T02:10:28.863Z,100.00
2023-07-07T02:12:56.972Z,100.00
2023-07-07T02:15:25.046Z,100.00
2023-07-07T02:17:53.118Z,100.00
2023-07-07T02:20:22.562Z,100.00
2023-07-07T02:22:50.583Z,100.00
2023-07-07T02:25:18.732Z,100.00
2023-07-07T02:27:46.751Z,100.00
2023-07-07T02:30:15.281Z,100.00
2023-07-07T02:32:43.386Z,100.00
2023-07-07T02:35:12.502Z,100.00
2023-07-07T02:37:41.947Z,100.00
2023-07-07T02:40:11.608Z,100.00
2023-07-07T02:42:40.039Z,100.00
2023-07-07T02:45:08.581Z,100.00
2023-07-07T02:47:36.650Z,100.00
2023-07-07T02:50:06.129Z,100.00
2023-07-07T02:52:34.163Z,100.00
2023-07-07T02:55:03.592Z,100.00
2023-07-07T02:57:32.473Z,100.00
2023-07-07T03:00:00.609Z,100.00
2023-07-07T03:02:28.714Z,100.00
2023-07-07T03:04:56.701Z,100.00
2023-07-07T03:07:24.720Z,100.00
2023-07-07T03:09:52.746Z,100.00
2023-07-07T03:12:22.102Z,100.00
2023-07-07T03:14:50.695Z,100.00
2023-07-07T03:17:18.746Z,100.00
2023-07-07T03:19:46.789Z,100.00
2023-07-07T03:22:14.889Z,100.00
2023-07-07T03:24:42.897Z,100.00
2023-07-07T03:27:11.014Z,100.00
2023-07-07T03:29:40.409Z,100.00
2023-07-07T03:32:09.578Z,100.00
2023-07-07T03:34:38.222Z,100.00
2023-07-07T03:37:06.891Z,100.00
2023-07-07T03:39:35.005Z,100.00
2023-07-07T03:42:03.268Z,100.00
2023-07-07T03:44:31.954Z,100.00
2023-07-07T03:47:04.113Z,100.00
2023-07-07T03:49:33.304Z,100.00
2023-07-07T03:52:01.332Z,100.00
2023-07-07T03:54:29.378Z,100.00
2023-07-07T03:56:59.273Z,100.00
2023-07-07T03:59:28.707Z,100.00
2023-07-07T04:01:56.718Z,100.00
2023-07-07T04:04:27.317Z,100.00
2023-07-07T04:06:57.797Z,100.00
2023-07-07T04:09:26.106Z,100.00
2023-07-07T04:11:54.147Z,100.00
2023-07-07T04:14:22.167Z,100.00
2023-07-07T04:16:50.247Z,100.00
2023-07-07T04:19:18.406Z,100.00
2023-07-07T04:21:47.799Z,100.00
2023-07-07T04:24:15.810Z,100.00
2023-07-07T04:26:45.013Z,100.00
2023-07-07T04:29:13.147Z,100.00
2023-07-07T04:31:46.242Z,100.00
2023-07-07T04:34:15.092Z,100.00
2023-07-07T04:36:45.908Z,100.00
2023-07-07T04:39:15.985Z,100.00
2023-07-07T04:41:43.991Z,100.00
2023-07-07T04:44:12.041Z,100.00
2023-07-07T04:46:41.743Z,100.00
2023-07-07T04:49:12.407Z,100.00
2023-07-07T04:51:42.490Z,100.00
2023-07-07T04:54:14.775Z,100.00
2023-07-07T04:56:45.684Z,100.00
2023-07-07T04:59:14.103Z,100.00
2023-07-07T05:01:42.945Z,100.00
2023-07-07T05:04:12.098Z,100.00
2023-07-07T05:06:41.422Z,100.00
2023-07-07T05:09:11.250Z,100.00
2023-07-07T05:11:39.355Z,100.00
2023-07-07T05:14:08.840Z,100.00
2023-07-07T05:16:39.698Z,100.00
2023-07-07T05:19:08.899Z,100.00
2023-07-07T05:21:37.229Z,100.00
2023-07-07T05:24:05.995Z,100.00
2023-07-07T05:26:34.076Z,100.00
2023-07-07T05:29:03.486Z,100.00
2023-07-07T05:31:33.507Z,100.00
2023-07-07T05:34:01.755Z,100.00
2023-07-07T05:36:30.032Z,100.00
2023-07-07T05:38:58.633Z,100.00
2023-07-07T05:41:26.712Z,100.00
2023-07-07T05:43:56.935Z,100.00
2023-07-07T05:46:25.219Z,100.00
2023-07-07T05:48:55.227Z,100.00
2023-07-07T05:51:23.196Z,100.00
2023-07-07T05:53:51.230Z,100.00
2023-07-07T05:56:21.542Z,97.49
2023-07-07T05:58:50.093Z,93.20
2023-07-07T06:01:18.516Z,92.68
2023-07-07T06:03:47.672Z,92.48
2023-07-07T06:06:17.150Z,95.35
2023-07-07T06:08:45.304Z,95.96
2023-07-07T06:11:13.371Z,95.77
2023-07-07T06:13:41.436Z,91.71
2023-07-07T06:16:09.985Z,89.70
2023-07-07T06:18:38.066Z,84.61
2023-07-07T06:21:06.495Z,81.17
2023-07-07T06:23:35.851Z,79.59
2023-07-07T06:26:03.847Z,81.35
2023-07-07T06:28:32.426Z,83.10
2023-07-07T06:31:00.616Z,85.30
2023-07-07T06:33:30.548Z,87.59
2023-07-07T06:35:58.679Z,86.65
2023-07-07T06:38:26.766Z,88.13
2023-07-07T06:40:56.572Z,90.07
2023-07-07T06:43:24.819Z,86.82
2023-07-07T06:45:57.403Z,84.96
2023-07-07T06:48:25.423Z,83.71
2023-07-07T06:50:53.757Z,83.19
2023-07-07T06:53:21.853Z,83.62
2023-07-07T06:55:49.911Z,82.77
2023-07-07T06:58:19.304Z,85.06
2023-07-07T07:00:47.400Z,85.56
2023-07-07T07:03:15.511Z,86.21
2023-07-07T07:05:43.687Z,86.25
2023-07-07T07:08:11.672Z,88.01
2023-07-07T07:10:39.755Z,88.74
2023-07-07T07:13:09.386Z,87.88
2023-07-07T07:15:38.953Z,89.12
2023-07-07T07:18:07.096Z,87.83
2023-07-07T07:20:35.198Z,88.19
2023-07-07T07:23:03.322Z,87.89
2023-07-07T07:25:31.521Z,87.48
2023-07-07T07:27:59.700Z,86.09
2023-07-07T07:30:27.742Z,85.27
2023-07-07T07:32:57.216Z,86.95
2023-07-07T07:35:25.310Z,87.02
2023-07-07T07:37:53.267Z,84.92
2023-07-07T07:40:24.252Z,84.13
2023-07-07T07:42:52.825Z,82.55
2023-07-07T07:45:23.105Z,83.57
2023-07-07T07:47:53.124Z,83.54
2023-07-07T07:50:24.752Z,84.58
2023-07-07T07:52:52.978Z,84.74
2023-07-07T07:55:21.017Z,84.38
2023-07-07T07:57:49.228Z,84.84
2023-07-07T08:00:18.009Z,81.19
2023-07-07T08:02:46.147Z,76.19
2023-07-07T08:05:14.743Z,71.67
2023-07-07T08:07:44.171Z,71.02
2023-07-07T08:10:12.693Z,68.83
2023-07-07T08:12:40.758Z,65.22
2023-07-07T08:15:12.068Z,64.83
2023-07-07T08:17:40.594Z,65.80
2023-07-07T08:20:18.292Z,62.08
2023-07-07T08:22:47.646Z,61.83
2023-07-07T08:25:15.780Z,59.33
2023-07-07T08:28:06.871Z,59.73
2023-07-07T08:30:33.284Z,57.96
2023-07-07T08:33:01.482Z,56.60
2023-07-07T08:35:29.703Z,58.01
2023-07-07T08:37:59.214Z,57.81
2023-07-07T08:40:36.285Z,57.89
2023-07-07T08:43:04.469Z,57.53
2023-07-07T08:45:32.747Z,56.85
2023-07-07T08:48:09.663Z,59.60
2023-07-07T08:50:43.397Z,58.65
2023-07-07T08:53:36.840Z,59.04
2023-07-07T08:56:12.237Z,59.58
2023-07-07T08:58:51.585Z,60.83
2023-07-07T09:01:32.966Z,60.66
2023-07-07T09:04:19.737Z,60.54
2023-07-07T09:07:02.098Z,59.99
2023-07-07T09:10:00.071Z,57.30
2023-07-07T09:12:37.429Z,58.38
2023-07-07T09:15:15.384Z,56.35
2023-07-07T09:17:49.178Z,58.11
2023-07-07T09:20:21.833Z,55.92
2023-07-07T09:22:56.339Z,54.30
2023-07-07T09:25:44.613Z,56.19
2023-07-07T09:28:18.476Z,55.74
2023-07-07T09:30:50.106Z,52.73
2023-07-07T09:33:23.359Z,49.62
2023-07-07T09:36:02.460Z,50.14
2023-07-07T09:38:42.568Z,50.70
2023-07-07T09:41:20.301Z,52.11
2023-07-07T09:44:11.023Z,53.51
2023-07-07T09:46:45.864Z,51.66
2023-07-07T09:49:28.713Z,52.59
2023-07-07T09:52:08.581Z,50.92
2023-07-07T09:54:37.323Z,51.39
2023-07-07T09:57:18.794Z,51.07
2023-07-07T09:59:52.702Z,53.85
2023-07-07T10:02:24.475Z,53.08
2023-07-07T10:04:58.730Z,53.40
2023-07-07T10:07:29.313Z,53.71
2023-07-07T10:10:00.477Z,54.40
2023-07-07T10:12:35.236Z,54.82
2023-07-07T10:15:47.195Z,54.45
2023-07-07T10:18:19.720Z,53.55
2023-07-07T10:20:47.774Z,53.56
2023-07-07T10:23:17.013Z,52.71
2023-07-07T10:25:47.737Z,50.63
2023-07-07T10:28:20.162Z,48.10
2023-07-07T10:30:49.915Z,48.85
2023-07-07T10:33:21.690Z,51.22
2023-07-07T10:35:50.795Z,48.03
2023-07-07T10:38:18.863Z,48.92
2023-07-07T10:40:49.541Z,49.08
2023-07-07T10:43:22.983Z,47.71
2023-07-07T10:45:51.139Z,47.41
2023-07-07T10:48:19.397Z,48.35
2023-07-07T10:51:08.543Z,48.79
2023-07-07T10:53:50.484Z,48.86
2023-07-07T10:56:29.536Z,49.05
2023-07-07T10:59:32.957Z,47.35
2023-07-07T11:02:18.169Z,47.99
2023-07-07T11:05:21.756Z,48.31
2023-07-07T11:08:01.501Z,46.32
2023-07-07T11:11:00.104Z,46.41
2023-07-07T11:13:45.512Z,44.89
2023-07-07T11:16:20.641Z,46.94
2023-07-07T11:19:16.171Z,50.58
2023-07-07T11:21:53.320Z,48.99
2023-07-07T11:24:48.629Z,48.54
2023-07-07T11:27:47.684Z,49.47
2023-07-07T11:30:23.665Z,49.61
2023-07-07T11:33:02.968Z,49.90
2023-07-07T11:35:49.785Z,49.68
2023-07-07T11:38:46.433Z,49.34
2023-07-07T11:41:18.500Z,47.49
2023-07-07T11:44:02.972Z,45.79
2023-07-07T11:46:47.759Z,43.50
2023-07-07T11:49:31.357Z,44.14
2023-07-07T11:52:16.828Z,48.20
2023-07-07T11:55:07.799Z,51.90
2023-07-07T11:58:03.291Z,52.06
2023-07-07T12:00:44.097Z,53.36
2023-07-07T12:03:36.341Z,53.89
2023-07-07T12:06:14.258Z,71.46
2023-07-07T12:08:49.587Z,100.00
2023-07-07T12:11:20.065Z,100.00
2023-07-07T12:14:01.825Z,100.00
2023-07-07T12:16:31.807Z,100.00
2023-07-07T12:19:18.076Z,100.00
2023-07-07T12:21:48.468Z,100.00
2023-07-07T12:24:27.001Z,100.00
2023-07-07T12:27:09.974Z,100.00
2023-07-07T12:29:40.674Z,100.00
2023-07-07T12:32:10.093Z,100.00
2023-07-07T12:34:42.524Z,100.00
2023-07-07T12:37:18.994Z,100.00
2023-07-07T12:40:05.397Z,100.00
2023-07-07T12:42:34.695Z,100.00
2023-07-07T12:45:20.093Z,100.00
2023-07-07T12:47:54.430Z,100.00
2023-07-07T12:50:30.428Z,100.00
2023-07-07T12:53:04.459Z,100.00
2023-07-07T12:55:39.674Z,100.00
2023-07-07T12:58:32.627Z,100.00
2023-07-07T13:01:07.677Z,100.00
2023-07-07T13:03:44.800Z,100.00
2023-07-07T13:06:38.167Z,100.00
2023-07-07T13:09:21.810Z,100.00
2023-07-07T13:11:53.443Z,100.00
2023-07-07T13:14:45.398Z,100.00
2023-07-07T13:17:17.547Z,100.00
2023-07-07T13:19:51.360Z,100.00
2023-07-07T13:22:25.649Z,100.00
2023-07-07T13:24:58.945Z,100.00
2023-07-07T13:27:30.821Z,100.00
2023-07-07T13:30:03.311Z,100.00
2023-07-07T13:32:33.351Z,100.00
2023-07-07T13:35:04.095Z,100.00
2023-07-07T13:37:34.628Z,100.00
2023-07-07T13:40:02.788Z,100.00
2023-07-07T13:42:33.725Z,100.00
2023-07-07T13:45:04.790Z,100.00
2023-07-07T13:47:33.696Z,100.00
2023-07-07T13:50:06.441Z,100.00
2023-07-07T13:52:36.450Z,100.00
2023-07-07T13:55:04.644Z,100.00
2023-07-07T13:57:35.678Z,100.00
2023-07-07T14:00:04.011Z,100.00
2023-07-07T14:02:32.557Z,100.00
2023-07-07T14:05:05.588Z,100.00
2023-07-07T14:07:38.597Z,100.00
2023-07-07T14:10:22.724Z,100.00
2023-07-07T14:12:52.200Z,100.00
2023-07-07T14:15:22.928Z,100.00
2023-07-07T14:20:26.307Z,100.00
2023-07-07T14:22:55.281Z,100.00
2023-07-07T14:25:24.645Z,100.00
2023-07-07T14:27:57.630Z,100.00
2023-07-07T14:30:27.101Z,100.00
2023-07-07T14:33:01.137Z,100.00
2023-07-07T14:35:33.016Z,100.00
2023-07-07T14:38:05.893Z,100.00
2023-07-07T14:40:36.166Z,100.00
2023-07-07T14:43:21.068Z,100.00
2023-07-07T14:45:50.718Z,100.00
2023-07-07T14:48:21.113Z,100.00
2023-07-07T14:50:50.066Z,100.00
2023-07-07T14:53:20.112Z,100.00
2023-07-07T14:55:52.897Z,100.00
2023-07-07T14:58:26.829Z,100.00
2023-07-07T15:01:06.627Z,100.00
2023-07-07T15:03:39.344Z,95.22
2023-07-07T15:06:29.709Z,87.57
2023-07-07T15:08:58.709Z,82.43
2023-07-07T15:11:34.506Z,76.99
2023-07-07T15:14:05.944Z,78.17
2023-07-07T15:16:34.780Z,76.22
2023-07-07T15:19:14.341Z,74.97
2023-07-07T15:21:42.413Z,75.74
2023-07-07T15:24:10.494Z,76.73
2023-07-07T15:26:39.405Z,77.77
2023-07-07T15:29:16.293Z,76.92
2023-07-07T15:31:44.649Z,77.21
2023-07-07T15:34:12.806Z,75.50
2023-07-07T15:36:41.035Z,74.72
2023-07-07T15:39:14.192Z,74.68
2023-07-07T15:41:42.789Z,76.52
2023-07-07T15:44:12.242Z,76.86
2023-07-07T15:46:48.296Z,75.78
2023-07-07T15:49:20.590Z,76.22
2023-07-07T15:51:49.418Z,74.69
2023-07-07T15:54:19.482Z,70.57
2023-07-07T15:56:50.022Z,70.55
2023-07-07T15:59:21.411Z,70.43
2023-07-07T16:01:51.059Z,70.94
2023-07-07T16:04:19.625Z,71.66
2023-07-07T16:06:48.099Z,71.38
2023-07-07T16:09:18.261Z,70.35
2023-07-07T16:11:46.908Z,69.82
2023-07-07T16:14:17.056Z,68.54
2023-07-07T16:16:49.433Z,67.07
2023-07-07T16:19:19.878Z,69.07
2023-07-07T16:21:48.667Z,69.38
2023-07-07T16:24:17.220Z,71.19
2023-07-07T16:26:48.045Z,71.22
2023-07-07T16:29:19.170Z,72.72
2023-07-07T16:31:48.652Z,73.30
2023-07-07T16:34:18.997Z,73.33
2023-07-07T16:36:47.566Z,74.62
2023-07-07T16:39:17.983Z,73.89
2023-07-07T16:41:46.451Z,73.90
2023-07-07T16:44:15.272Z,73.31
2023-07-07T16:46:44.071Z,72.85
2023-07-07T16:49:15.773Z,72.48
2023-07-07T16:51:44.113Z,72.09
2023-07-07T16:54:12.477Z,71.38
2023-07-07T16:56:43.350Z,72.11
2023-07-07T16:59:17.085Z,72.78
2023-07-07T17:01:47.634Z,73.25
2023-07-07T17:04:17.440Z,73.00
2023-07-07T17:06:46.023Z,72.46
2023-07-07T17:09:17.302Z,73.23
2023-07-07T17:11:46.165Z,73.64
2023-07-07T17:14:14.573Z,73.86
2023-07-07T17:16:43.531Z,74.97
2023-07-07T17:19:18.726Z,74.51
2023-07-07T17:21:46.864Z,75.37
2023-07-07T17:24:14.894Z,75.94
2023-07-07T17:26:43.874Z,76.36
2023-07-07T17:29:14.623Z,76.94
2023-07-07T17:31:42.702Z,77.37
2023-07-07T17:34:10.901Z,77.54
2023-07-07T17:36:44.968Z,78.27
2023-07-07T17:39:14.938Z,78.86
2023-07-07T17:41:43.787Z,79.89
2023-07-07T17:44:12.176Z,80.06
2023-07-07T17:46:41.513Z,80.87
2023-07-07T17:49:15.698Z,80.69
2023-07-07T17:51:45.441Z,81.56
2023-07-07T17:54:13.890Z,82.66
2023-07-07T17:56:43.096Z,82.96
2023-07-07T17:59:18.640Z,83.63
2023-07-07T18:01:47.121Z,83.83
2023-07-07T18:04:15.405Z,83.95
2023-07-07T18:06:49.682Z,84.10
2023-07-07T18:09:17.871Z,84.51
2023-07-07T18:11:45.935Z,84.99
2023-07-07T18:14:14.028Z,84.96
2023-07-07T18:16:45.907Z,84.93
2023-07-07T18:19:29.910Z,86.01
2023-07-07T18:22:12.248Z,87.89
2023-07-07T18:24:42.562Z,87.54
2023-07-07T18:27:11.899Z,88.45
2023-07-07T18:29:40.033Z,89.09
2023-07-07T18:32:11.779Z,89.80
2023-07-07T18:34:40.104Z,89.80
2023-07-07T18:37:12.765Z,89.57
2023-07-07T18:39:41.412Z,89.98
2023-07-07T18:42:11.265Z,90.82
2023-07-07T18:44:39.547Z,91.13
2023-07-07T18:47:16.277Z,91.65
2023-07-07T18:49:46.033Z,91.78
2023-07-07T18:52:16.186Z,92.31
2023-07-07T18:54:44.357Z,92.34
2023-07-07T18:57:12.729Z,92.60
2023-07-07T18:59:40.792Z,92.88
2023-07-07T19:02:15.190Z,93.15
2023-07-07T19:04:43.272Z,92.83
2023-07-07T19:07:11.287Z,92.62
2023-07-07T19:09:42.373Z,91.80
2023-07-07T19:12:12.027Z,91.61
2023-07-07T19:14:40.092Z,91.40
2023-07-07T19:17:11.081Z,92.27
2023-07-07T19:19:39.138Z,92.64
2023-07-07T19:22:10.904Z,92.29
2023-07-07T19:24:40.281Z,92.57
2023-07-07T19:27:11.486Z,92.78
2023-07-07T19:29:39.472Z,92.97
2023-07-07T19:32:15.819Z,92.96
2023-07-07T19:34:43.840Z,93.50
2023-07-07T19:37:12.062Z,92.81
2023-07-07T19:39:43.161Z,92.93
2023-07-07T19:42:12.977Z,93.56
2023-07-07T19:44:42.445Z,93.92
2023-07-07T19:47:13.751Z,94.36
2023-07-07T19:49:42.410Z,93.88
2023-07-07T19:52:16.717Z,93.56
2023-07-07T19:54:46.777Z,93.58
2023-07-07T19:57:22.849Z,93.31
2023-07-07T19:59:51.696Z,94.41
2023-07-07T20:02:21.379Z,93.84
2023-07-07T20:04:50.687Z,94.52
2023-07-07T20:07:18.800Z,95.19
2023-07-07T20:09:48.495Z,95.17
2023-07-07T20:12:18.697Z,95.48
2023-07-07T20:14:47.015Z,95.71
2023-07-07T20:17:15.188Z,95.68
2023-07-07T20:19:43.254Z,96.19
2023-07-07T20:22:14.130Z,97.40
2023-07-07T20:24:42.554Z,96.62
2023-07-07T20:27:13.639Z,97.56
2023-07-07T20:29:41.995Z,97.61
2023-07-07T20:32:15.479Z,98.33
2023-07-07T20:34:43.600Z,97.77
2023-07-07T20:37:13.860Z,98.21
2023-07-07T20:39:42.077Z,97.71
2023-07-07T20:42:14.003Z,97.49
2023-07-07T20:44:43.130Z,97.69
2023-07-07T20:47:13.529Z,98.33
2023-07-07T20:49:42.152Z,97.63
2023-07-07T20:52:12.487Z,97.06
2023-07-07T20:54:40.589Z,95.59
2023-07-07T20:59:44.004Z,95.56
2023-07-07T21:02:14.355Z,95.40
2023-07-07T21:04:42.633Z,94.67
2023-07-07T21:07:13.077Z,95.01
2023-07-07T21:09:41.092Z,93.84
2023-07-07T21:12:10.611Z,93.58
2023-07-07T21:14:40.191Z,92.93
2023-07-07T21:17:09.908Z,93.07
2023-07-07T21:19:37.946Z,93.02
2023-07-07T21:22:11.354Z,93.80
2023-07-07T21:24:39.337Z,93.49
2023-07-07T21:27:09.889Z,94.24
2023-07-07T21:29:43.204Z,93.92
2023-07-07T21:32:12.579Z,94.40
2023-07-07T21:34:40.556Z,93.16
2023-07-07T21:37:11.809Z,92.98
2023-07-07T21:39:39.783Z,93.17
2023-07-07T21:42:12.888Z,93.12
2023-07-07T21:44:45.452Z,94.05
2023-07-07T21:47:15.588Z,94.18
2023-07-07T21:49:44.982Z,95.31
2023-07-07T21:52:15.601Z,95.29
2023-07-07T21:54:44.315Z,96.45
2023-07-07T21:57:30.208Z,97.72
2023-07-07T21:59:59.787Z,98.13
2023-07-07T22:02:27.976Z,98.37
2023-07-07T22:04:56.146Z,97.64
2023-07-07T22:07:24.320Z,98.04
2023-07-07T22:09:52.309Z,97.55
2023-07-07T22:12:20.342Z,97.64
2023-07-07T22:14:48.606Z,98.15
2023-07-07T22:17:18.038Z,99.41
2023-07-07T22:19:46.099Z,97.21
2023-07-07T22:22:14.095Z,97.56
2023-07-07T22:24:42.447Z,97.99
2023-07-07T22:27:15.673Z,96.25
2023-07-07T22:29:44.667Z,96.69
2023-07-07T22:32:14.392Z,96.63
2023-07-07T22:34:43.756Z,96.77
2023-07-07T22:37:13.704Z,97.28
2023-07-07T22:39:41.794Z,98.01
2023-07-07T22:42:14.009Z,97.46
2023-07-07T22:44:42.165Z,97.48
2023-07-07T22:47:11.264Z,98.33
2023-07-07T22:49:39.811Z,98.85
2023-07-07T22:52:13.806Z,98.23
2023-07-07T22:54:41.987Z,98.48
2023-07-07T22:57:12.481Z,98.90
2023-07-07T22:59:40.465Z,99.81
2023-07-07T23:02:11.561Z,99.61
2023-07-07T23:04:39.559Z,99.72
2023-07-07T23:07:13.038Z,98.92
2023-07-07T23:09:46.028Z,98.58
2023-07-07T23:12:16.452Z,98.77
2023-07-07T23:14:45.485Z,99.00
2023-07-07T23:17:20.623Z,99.33
2023-07-07T23:19:54.713Z,99.73
2023-07-07T23:22:28.159Z,99.05
2023-07-07T23:24:59.698Z,100.00
2023-07-07T23:27:30.523Z,100.00
2023-07-07T23:30:02.804Z,99.84
2023-07-07T23:32:31.797Z,100.00
2023-07-07T23:34:59.780Z,100.00
2023-07-07T23:37:31.347Z,100.00
2023-07-07T23:39:59.528Z,100.00
2023-07-07T23:42:27.694Z,100.00
2023-07-07T23:44:56.342Z,100.00
2023-07-07T23:47:24.522Z,100.00
2023-07-07T23:49:53.501Z,100.00
2023-07-07T23:52:21.456Z,100.00
2023-07-07T23:54:50.870Z,100.00
2023-07-07T23:57:21.270Z,100.00
2023-07-07T23:59:49.281Z,100.00
